sensor_id;sensor_type;location;lat;lon;timestamp;P1;durP1;ratioP1;P2;durP2;ratioP2
48185;SDS011;33978;47.432;18.916;2022-07-29T00:01:41;3.50;;;2.40;;
48185;SDS011;33978;47.432;18.916;2022-07-29T00:04:10;2.55;;;2.00;;
48185;SDS011;33978;47.432;18.916;2022-07-29T00:06:38;2.95;;;2.20;;
48185;SDS011;33978;47.432;18.916;2022-07-29T00:09:05;3.97;;;2.40;;
48185;SDS011;33978;47.432;18.916;2022-07-29T00:11:33;2.45;;;1.95;;
48185;SDS011;33978;47.432;18.916;2022-07-29T00:14:00;2.58;;;2.20;;
48185;SDS011;33978;47.432;18.916;2022-07-29T00:16:28;2.37;;;2.15;;
48185;SDS011;33978;47.432;18.916;2022-07-29T00:18:56;3.05;;;2.33;;
48185;SDS011;33978;47.432;18.916;2022-07-29T00:21:28;2.90;;;2.22;;
48185;SDS011;33978;47.432;18.916;2022-07-29T00:23:56;3.62;;;2.20;;
48185;SDS011;33978;47.432;18.916;2022-07-29T00:26:23;2.85;;;2.10;;
48185;SDS011;33978;47.432;18.916;2022-07-29T00:28:50;3.45;;;2.40;;
48185;SDS011;33978;47.432;18.916;2022-07-29T00:31:18;3.53;;;2.12;;
48185;SDS011;33978;47.432;18.916;2022-07-29T00:33:46;3.20;;;2.55;;
48185;SDS011;33978;47.432;18.916;2022-07-29T00:36:13;5.12;;;2.40;;
48185;SDS011;33978;47.432;18.916;2022-07-29T00:38:41;4.25;;;2.30;;
48185;SDS011;33978;47.432;18.916;2022-07-29T00:41:12;3.20;;;2.15;;
48185;SDS011;33978;47.432;18.916;2022-07-29T00:43:39;3.10;;;2.60;;
48185;SDS011;33978;47.432;18.916;2022-07-29T00:46:08;3.80;;;2.58;;
48185;SDS011;33978;47.432;18.916;2022-07-29T00:48:35;2.80;;;2.22;;
48185;SDS011;33978;47.432;18.916;2022-07-29T00:51:04;3.15;;;2.08;;
48185;SDS011;33978;47.432;18.916;2022-07-29T00:53:32;3.62;;;2.42;;
48185;SDS011;33978;47.432;18.916;2022-07-29T00:55:59;3.33;;;2.40;;
48185;SDS011;33978;47.432;18.916;2022-07-29T00:58:26;3.87;;;2.53;;
48185;SDS011;33978;47.432;18.916;2022-07-29T01:00:54;3.50;;;2.70;;
48185;SDS011;33978;47.432;18.916;2022-07-29T01:03:22;3.05;;;2.10;;
48185;SDS011;33978;47.432;18.916;2022-07-29T01:05:49;4.47;;;2.30;;
48185;SDS011;33978;47.432;18.916;2022-07-29T01:08:18;2.65;;;2.05;;
48185;SDS011;33978;47.432;18.916;2022-07-29T01:10:46;3.30;;;2.47;;
48185;SDS011;33978;47.432;18.916;2022-07-29T01:13:14;3.12;;;2.40;;
48185;SDS011;33978;47.432;18.916;2022-07-29T01:15:44;2.70;;;1.98;;
48185;SDS011;33978;47.432;18.916;2022-07-29T01:29:45;3.35;;;2.22;;
48185;SDS011;33978;47.432;18.916;2022-07-29T01:32:19;3.75;;;2.37;;
48185;SDS011;33978;47.432;18.916;2022-07-29T01:35:05;3.70;;;2.47;;
48185;SDS011;33978;47.432;18.916;2022-07-29T01:43:03;2.80;;;2.10;;
48185;SDS011;33978;47.432;18.916;2022-07-29T01:46:05;2.25;;;1.90;;
48185;SDS011;33978;47.432;18.916;2022-07-29T01:48:40;3.78;;;2.65;;
48185;SDS011;33978;47.432;18.916;2022-07-29T01:51:20;3.65;;;2.50;;
48185;SDS011;33978;47.432;18.916;2022-07-29T01:54:04;3.10;;;2.37;;
48185;SDS011;33978;47.432;18.916;2022-07-29T01:56:36;2.30;;;2.10;;
48185;SDS011;33978;47.432;18.916;2022-07-29T01:59:06;3.78;;;2.42;;
48185;SDS011;33978;47.432;18.916;2022-07-29T02:01:36;2.87;;;2.30;;
48185;SDS011;33978;47.432;18.916;2022-07-29T02:04:06;2.90;;;2.17;;
48185;SDS011;33978;47.432;18.916;2022-07-29T02:06:37;2.95;;;2.10;;
48185;SDS011;33978;47.432;18.916;2022-07-29T02:09:06;3.05;;;2.37;;
48185;SDS011;33978;47.432;18.916;2022-07-29T02:11:34;5.40;;;2.60;;
48185;SDS011;33978;47.432;18.916;2022-07-29T02:14:02;4.03;;;2.42;;
48185;SDS011;33978;47.432;18.916;2022-07-29T02:16:31;3.08;;;2.35;;
48185;SDS011;33978;47.432;18.916;2022-07-29T02:19:01;2.65;;;2.22;;
48185;SDS011;33978;47.432;18.916;2022-07-29T02:21:29;3.10;;;2.30;;
48185;SDS011;33978;47.432;18.916;2022-07-29T02:23:58;3.67;;;2.55;;
48185;SDS011;33978;47.432;18.916;2022-07-29T02:26:26;3.25;;;2.47;;
48185;SDS011;33978;47.432;18.916;2022-07-29T02:28:56;3.33;;;2.30;;
48185;SDS011;33978;47.432;18.916;2022-07-29T02:31:26;3.85;;;2.67;;
48185;SDS011;33978;47.432;18.916;2022-07-29T02:33:56;2.97;;;2.35;;
48185;SDS011;33978;47.432;18.916;2022-07-29T02:36:24;4.37;;;2.80;;
48185;SDS011;33978;47.432;18.916;2022-07-29T02:38:52;3.70;;;2.50;;
48185;SDS011;33978;47.432;18.916;2022-07-29T02:41:23;3.65;;;2.50;;
48185;SDS011;33978;47.432;18.916;2022-07-29T02:43:58;4.75;;;2.60;;
48185;SDS011;33978;47.432;18.916;2022-07-29T02:46:45;3.12;;;2.42;;
48185;SDS011;33978;47.432;18.916;2022-07-29T02:52:12;4.43;;;2.80;;
48185;SDS011;33978;47.432;18.916;2022-07-29T03:00:23;2.75;;;2.20;;
48185;SDS011;33978;47.432;18.916;2022-07-29T03:02:52;5.22;;;2.37;;
48185;SDS011;33978;47.432;18.916;2022-07-29T03:05:21;3.40;;;2.55;;
48185;SDS011;33978;47.432;18.916;2022-07-29T03:07:51;4.22;;;3.08;;
48185;SDS011;33978;47.432;18.916;2022-07-29T03:10:22;4.10;;;2.72;;
48185;SDS011;33978;47.432;18.916;2022-07-29T03:12:50;3.37;;;2.20;;
48185;SDS011;33978;47.432;18.916;2022-07-29T03:15:18;4.07;;;2.67;;
48185;SDS011;33978;47.432;18.916;2022-07-29T03:17:46;3.47;;;2.58;;
48185;SDS011;33978;47.432;18.916;2022-07-29T03:20:14;3.45;;;2.37;;
48185;SDS011;33978;47.432;18.916;2022-07-29T03:22:43;2.95;;;2.20;;
48185;SDS011;33978;47.432;18.916;2022-07-29T03:25:14;3.67;;;2.60;;
48185;SDS011;33978;47.432;18.916;2022-07-29T03:27:42;3.47;;;2.72;;
48185;SDS011;33978;47.432;18.916;2022-07-29T03:30:11;3.90;;;2.92;;
48185;SDS011;33978;47.432;18.916;2022-07-29T03:32:48;3.35;;;2.50;;
48185;SDS011;33978;47.432;18.916;2022-07-29T03:35:18;3.72;;;2.80;;
48185;SDS011;33978;47.432;18.916;2022-07-29T03:37:46;4.32;;;3.05;;
48185;SDS011;33978;47.432;18.916;2022-07-29T03:40:16;4.35;;;2.50;;
48185;SDS011;33978;47.432;18.916;2022-07-29T03:42:50;3.75;;;2.80;;
48185;SDS011;33978;47.432;18.916;2022-07-29T03:45:19;4.10;;;2.97;;
48185;SDS011;33978;47.432;18.916;2022-07-29T03:47:50;3.92;;;2.78;;
48185;SDS011;33978;47.432;18.916;2022-07-29T03:50:27;3.58;;;2.40;;
48185;SDS011;33978;47.432;18.916;2022-07-29T03:52:56;3.20;;;2.35;;
48185;SDS011;33978;47.432;18.916;2022-07-29T03:55:24;4.12;;;3.12;;
48185;SDS011;33978;47.432;18.916;2022-07-29T03:57:53;3.45;;;2.67;;
48185;SDS011;33978;47.432;18.916;2022-07-29T04:00:21;4.10;;;2.78;;
48185;SDS011;33978;47.432;18.916;2022-07-29T04:02:50;3.17;;;2.47;;
48185;SDS011;33978;47.432;18.916;2022-07-29T04:05:18;3.05;;;2.53;;
48185;SDS011;33978;47.432;18.916;2022-07-29T04:07:46;3.70;;;2.40;;
48185;SDS011;33978;47.432;18.916;2022-07-29T04:10:15;6.05;;;2.33;;
48185;SDS011;33978;47.432;18.916;2022-07-29T04:12:56;3.20;;;2.37;;
48185;SDS011;33978;47.432;18.916;2022-07-29T04:15:24;3.17;;;2.53;;
48185;SDS011;33978;47.432;18.916;2022-07-29T04:17:56;3.40;;;2.45;;
48185;SDS011;33978;47.432;18.916;2022-07-29T04:20:24;4.00;;;2.55;;
48185;SDS011;33978;47.432;18.916;2022-07-29T04:22:52;3.42;;;2.30;;
48185;SDS011;33978;47.432;18.916;2022-07-29T04:25:20;3.80;;;2.53;;
48185;SDS011;33978;47.432;18.916;2022-07-29T04:27:47;4.65;;;2.80;;
48185;SDS011;33978;47.432;18.916;2022-07-29T04:30:27;2.72;;;2.17;;
48185;SDS011;33978;47.432;18.916;2022-07-29T04:32:55;3.37;;;2.45;;
48185;SDS011;33978;47.432;18.916;2022-07-29T04:35:22;3.03;;;2.50;;
48185;SDS011;33978;47.432;18.916;2022-07-29T04:37:50;3.67;;;2.50;;
48185;SDS011;33978;47.432;18.916;2022-07-29T04:40:17;2.83;;;2.30;;
48185;SDS011;33978;47.432;18.916;2022-07-29T04:42:45;3.00;;;2.40;;
48185;SDS011;33978;47.432;18.916;2022-07-29T04:45:14;3.97;;;2.30;;
48185;SDS011;33978;47.432;18.916;2022-07-29T04:47:42;3.65;;;2.62;;
48185;SDS011;33978;47.432;18.916;2022-07-29T04:50:09;3.00;;;2.35;;
48185;SDS011;33978;47.432;18.916;2022-07-29T04:52:37;6.80;;;3.00;;
48185;SDS011;33978;47.432;18.916;2022-07-29T04:55:05;4.12;;;2.62;;
48185;SDS011;33978;47.432;18.916;2022-07-29T04:57:33;3.40;;;2.35;;
48185;SDS011;33978;47.432;18.916;2022-07-29T05:00:03;2.40;;;2.12;;
48185;SDS011;33978;47.432;18.916;2022-07-29T05:02:31;5.07;;;2.75;;
48185;SDS011;33978;47.432;18.916;2022-07-29T05:04:59;3.55;;;2.20;;
48185;SDS011;33978;47.432;18.916;2022-07-29T05:07:26;3.40;;;2.33;;
48185;SDS011;33978;47.432;18.916;2022-07-29T05:09:54;3.12;;;2.50;;
48185;SDS011;33978;47.432;18.916;2022-07-29T05:12:24;2.62;;;2.28;;
48185;SDS011;33978;47.432;18.916;2022-07-29T05:14:52;2.87;;;2.25;;
48185;SDS011;33978;47.432;18.916;2022-07-29T05:17:19;3.95;;;2.87;;
48185;SDS011;33978;47.432;18.916;2022-07-29T05:19:47;3.12;;;2.45;;
48185;SDS011;33978;47.432;18.916;2022-07-29T05:22:15;3.70;;;2.60;;
48185;SDS011;33978;47.432;18.916;2022-07-29T05:24:42;3.00;;;2.28;;
48185;SDS011;33978;47.432;18.916;2022-07-29T05:27:10;4.68;;;2.40;;
48185;SDS011;33978;47.432;18.916;2022-07-29T05:29:37;4.68;;;2.72;;
48185;SDS011;33978;47.432;18.916;2022-07-29T05:32:11;4.87;;;2.83;;
48185;SDS011;33978;47.432;18.916;2022-07-29T05:34:40;3.58;;;2.60;;
48185;SDS011;33978;47.432;18.916;2022-07-29T05:37:18;5.25;;;3.17;;
48185;SDS011;33978;47.432;18.916;2022-07-29T05:39:46;3.72;;;2.83;;
48185;SDS011;33978;47.432;18.916;2022-07-29T05:42:16;3.80;;;2.92;;
48185;SDS011;33978;47.432;18.916;2022-07-29T05:44:44;3.47;;;2.62;;
48185;SDS011;33978;47.432;18.916;2022-07-29T05:47:11;3.90;;;2.62;;
48185;SDS011;33978;47.432;18.916;2022-07-29T05:49:40;2.75;;;2.45;;
48185;SDS011;33978;47.432;18.916;2022-07-29T05:52:07;3.55;;;2.97;;
48185;SDS011;33978;47.432;18.916;2022-07-29T05:54:36;3.90;;;2.75;;
48185;SDS011;33978;47.432;18.916;2022-07-29T05:57:03;3.70;;;3.25;;
48185;SDS011;33978;47.432;18.916;2022-07-29T05:59:34;3.78;;;2.53;;
48185;SDS011;33978;47.432;18.916;2022-07-29T06:02:03;4.37;;;3.08;;
48185;SDS011;33978;47.432;18.916;2022-07-29T06:04:32;3.37;;;2.50;;
48185;SDS011;33978;47.432;18.916;2022-07-29T06:07:00;3.30;;;2.53;;
48185;SDS011;33978;47.432;18.916;2022-07-29T06:09:28;4.28;;;2.97;;
48185;SDS011;33978;47.432;18.916;2022-07-29T06:11:57;3.85;;;2.72;;
48185;SDS011;33978;47.432;18.916;2022-07-29T06:14:25;3.20;;;2.50;;
48185;SDS011;33978;47.432;18.916;2022-07-29T06:16:54;4.97;;;2.80;;
48185;SDS011;33978;47.432;18.916;2022-07-29T06:19:22;3.60;;;2.65;;
48185;SDS011;33978;47.432;18.916;2022-07-29T06:21:49;4.55;;;2.70;;
48185;SDS011;33978;47.432;18.916;2022-07-29T06:24:17;4.20;;;2.50;;
48185;SDS011;33978;47.432;18.916;2022-07-29T06:26:45;3.15;;;2.53;;
48185;SDS011;33978;47.432;18.916;2022-07-29T06:29:13;3.22;;;2.53;;
48185;SDS011;33978;47.432;18.916;2022-07-29T06:31:40;7.28;;;3.40;;
48185;SDS011;33978;47.432;18.916;2022-07-29T06:34:08;3.92;;;2.55;;
48185;SDS011;33978;47.432;18.916;2022-07-29T06:36:36;2.78;;;2.30;;
48185;SDS011;33978;47.432;18.916;2022-07-29T06:39:07;3.65;;;2.80;;
48185;SDS011;33978;47.432;18.916;2022-07-29T06:41:35;4.47;;;2.70;;
48185;SDS011;33978;47.432;18.916;2022-07-29T06:44:03;4.72;;;2.97;;
48185;SDS011;33978;47.432;18.916;2022-07-29T06:46:31;2.90;;;2.40;;
48185;SDS011;33978;47.432;18.916;2022-07-29T06:49:00;6.87;;;2.45;;
48185;SDS011;33978;47.432;18.916;2022-07-29T06:51:28;6.72;;;2.62;;
48185;SDS011;33978;47.432;18.916;2022-07-29T06:53:56;4.43;;;2.70;;
48185;SDS011;33978;47.432;18.916;2022-07-29T06:56:30;4.03;;;2.97;;
48185;SDS011;33978;47.432;18.916;2022-07-29T06:59:06;3.80;;;2.95;;
48185;SDS011;33978;47.432;18.916;2022-07-29T07:01:38;2.95;;;2.22;;
48185;SDS011;33978;47.432;18.916;2022-07-29T07:04:07;6.70;;;2.85;;
48185;SDS011;33978;47.432;18.916;2022-07-29T07:06:36;3.90;;;2.60;;
48185;SDS011;33978;47.432;18.916;2022-07-29T07:09:03;3.72;;;2.55;;
48185;SDS011;33978;47.432;18.916;2022-07-29T07:11:31;3.92;;;2.60;;
48185;SDS011;33978;47.432;18.916;2022-07-29T07:13:59;4.50;;;2.80;;
48185;SDS011;33978;47.432;18.916;2022-07-29T07:16:30;3.08;;;2.53;;
48185;SDS011;33978;47.432;18.916;2022-07-29T07:18:59;3.47;;;2.78;;
48185;SDS011;33978;47.432;18.916;2022-07-29T07:21:27;3.22;;;2.42;;
48185;SDS011;33978;47.432;18.916;2022-07-29T07:23:57;4.30;;;2.75;;
48185;SDS011;33978;47.432;18.916;2022-07-29T07:26:25;4.90;;;2.78;;
48185;SDS011;33978;47.432;18.916;2022-07-29T07:28:54;3.20;;;2.35;;
48185;SDS011;33978;47.432;18.916;2022-07-29T07:31:21;3.72;;;2.65;;
48185;SDS011;33978;47.432;18.916;2022-07-29T07:33:49;4.35;;;2.33;;
48185;SDS011;33978;47.432;18.916;2022-07-29T07:36:17;2.47;;;2.22;;
48185;SDS011;33978;47.432;18.916;2022-07-29T07:38:44;3.35;;;2.45;;
48185;SDS011;33978;47.432;18.916;2022-07-29T07:41:12;2.95;;;2.42;;
48185;SDS011;33978;47.432;18.916;2022-07-29T07:43:39;4.80;;;2.90;;
48185;SDS011;33978;47.432;18.916;2022-07-29T07:46:07;5.07;;;2.45;;
48185;SDS011;33978;47.432;18.916;2022-07-29T07:48:35;3.60;;;2.50;;
48185;SDS011;33978;47.432;18.916;2022-07-29T07:51:03;3.37;;;2.45;;
48185;SDS011;33978;47.432;18.916;2022-07-29T07:53:31;3.40;;;2.50;;
48185;SDS011;33978;47.432;18.916;2022-07-29T07:55:58;4.47;;;2.90;;
48185;SDS011;33978;47.432;18.916;2022-07-29T07:58:37;3.70;;;2.60;;
48185;SDS011;33978;47.432;18.916;2022-07-29T08:01:06;4.35;;;2.80;;
48185;SDS011;33978;47.432;18.916;2022-07-29T08:03:34;4.70;;;2.72;;
48185;SDS011;33978;47.432;18.916;2022-07-29T08:06:02;5.03;;;2.78;;
48185;SDS011;33978;47.432;18.916;2022-07-29T08:08:30;4.55;;;2.78;;
48185;SDS011;33978;47.432;18.916;2022-07-29T08:10:58;3.75;;;3.00;;
48185;SDS011;33978;47.432;18.916;2022-07-29T08:13:31;4.25;;;2.60;;
48185;SDS011;33978;47.432;18.916;2022-07-29T08:15:59;4.00;;;2.87;;
48185;SDS011;33978;47.432;18.916;2022-07-29T08:18:29;3.45;;;2.40;;
48185;SDS011;33978;47.432;18.916;2022-07-29T08:20:58;4.45;;;3.03;;
48185;SDS011;33978;47.432;18.916;2022-07-29T08:23:25;2.95;;;2.45;;
48185;SDS011;33978;47.432;18.916;2022-07-29T08:26:13;3.03;;;2.30;;
48185;SDS011;33978;47.432;18.916;2022-07-29T08:28:42;4.18;;;2.87;;
48185;SDS011;33978;47.432;18.916;2022-07-29T08:31:13;2.85;;;2.30;;
48185;SDS011;33978;47.432;18.916;2022-07-29T08:33:41;3.50;;;2.50;;
48185;SDS011;33978;47.432;18.916;2022-07-29T08:36:09;4.18;;;2.42;;
48185;SDS011;33978;47.432;18.916;2022-07-29T08:38:36;3.40;;;2.97;;
48185;SDS011;33978;47.432;18.916;2022-07-29T08:41:04;4.00;;;2.75;;
48185;SDS011;33978;47.432;18.916;2022-07-29T08:43:31;3.58;;;2.80;;
48185;SDS011;33978;47.432;18.916;2022-07-29T08:46:02;3.50;;;2.50;;
48185;SDS011;33978;47.432;18.916;2022-07-29T08:48:29;3.87;;;2.50;;
48185;SDS011;33978;47.432;18.916;2022-07-29T08:50:58;3.40;;;2.40;;
48185;SDS011;33978;47.432;18.916;2022-07-29T08:53:26;3.62;;;2.50;;
48185;SDS011;33978;47.432;18.916;2022-07-29T08:55:54;3.45;;;2.45;;
48185;SDS011;33978;47.432;18.916;2022-07-29T08:58:22;3.37;;;2.60;;
48185;SDS011;33978;47.432;18.916;2022-07-29T09:00:53;4.90;;;2.53;;
48185;SDS011;33978;47.432;18.916;2022-07-29T09:03:22;3.72;;;2.53;;
48185;SDS011;33978;47.432;18.916;2022-07-29T09:05:51;3.12;;;2.58;;
48185;SDS011;33978;47.432;18.916;2022-07-29T09:08:19;3.70;;;2.37;;
48185;SDS011;33978;47.432;18.916;2022-07-29T09:10:47;3.08;;;2.33;;
48185;SDS011;33978;47.432;18.916;2022-07-29T09:13:15;3.58;;;2.58;;
48185;SDS011;33978;47.432;18.916;2022-07-29T09:15:42;2.87;;;2.37;;
48185;SDS011;33978;47.432;18.916;2022-07-29T09:18:10;2.85;;;2.35;;
48185;SDS011;33978;47.432;18.916;2022-07-29T09:20:56;3.22;;;2.30;;
48185;SDS011;33978;47.432;18.916;2022-07-29T09:24:03;3.35;;;2.53;;
48185;SDS011;33978;47.432;18.916;2022-07-29T09:26:43;3.85;;;2.28;;
48185;SDS011;33978;47.432;18.916;2022-07-29T09:29:13;5.03;;;2.42;;
48185;SDS011;33978;47.432;18.916;2022-07-29T09:31:43;6.62;;;2.60;;
48185;SDS011;33978;47.432;18.916;2022-07-29T09:34:13;2.78;;;2.25;;
48185;SDS011;33978;47.432;18.916;2022-07-29T09:36:43;2.78;;;2.28;;
48185;SDS011;33978;47.432;18.916;2022-07-29T09:39:15;3.80;;;2.58;;
48185;SDS011;33978;47.432;18.916;2022-07-29T09:41:48;3.62;;;2.37;;
48185;SDS011;33978;47.432;18.916;2022-07-29T09:44:21;2.75;;;2.12;;
48185;SDS011;33978;47.432;18.916;2022-07-29T09:46:56;3.53;;;1.95;;
48185;SDS011;33978;47.432;18.916;2022-07-29T09:49:25;2.22;;;1.95;;
48185;SDS011;33978;47.432;18.916;2022-07-29T09:52:08;2.05;;;1.80;;
48185;SDS011;33978;47.432;18.916;2022-07-29T09:54:38;3.33;;;2.40;;
48185;SDS011;33978;47.432;18.916;2022-07-29T09:57:07;5.00;;;2.20;;
48185;SDS011;33978;47.432;18.916;2022-07-29T10:02:16;3.22;;;2.40;;
48185;SDS011;33978;47.432;18.916;2022-07-29T10:04:50;2.92;;;2.20;;
48185;SDS011;33978;47.432;18.916;2022-07-29T10:07:17;2.17;;;1.75;;
48185;SDS011;33978;47.432;18.916;2022-07-29T10:10:18;3.25;;;2.25;;
48185;SDS011;33978;47.432;18.916;2022-07-29T10:12:52;2.97;;;2.20;;
48185;SDS011;33978;47.432;18.916;2022-07-29T10:15:22;2.80;;;1.90;;
48185;SDS011;33978;47.432;18.916;2022-07-29T10:17:51;2.40;;;2.17;;
48185;SDS011;33978;47.432;18.916;2022-07-29T10:20:20;3.22;;;2.00;;
48185;SDS011;33978;47.432;18.916;2022-07-29T10:22:49;2.00;;;1.73;;
48185;SDS011;33978;47.432;18.916;2022-07-29T10:25:20;2.70;;;1.90;;
48185;SDS011;33978;47.432;18.916;2022-07-29T10:27:48;2.53;;;1.92;;
48185;SDS011;33978;47.432;18.916;2022-07-29T10:30:16;2.58;;;1.80;;
48185;SDS011;33978;47.432;18.916;2022-07-29T10:35:24;2.62;;;2.08;;
48185;SDS011;33978;47.432;18.916;2022-07-29T10:38:15;2.28;;;1.75;;
48185;SDS011;33978;47.432;18.916;2022-07-29T10:44:18;2.60;;;2.10;;
48185;SDS011;33978;47.432;18.916;2022-07-29T10:46:50;2.50;;;2.10;;
48185;SDS011;33978;47.432;18.916;2022-07-29T10:54:37;3.08;;;2.15;;
48185;SDS011;33978;47.432;18.916;2022-07-29T10:59:43;2.42;;;1.80;;
48185;SDS011;33978;47.432;18.916;2022-07-29T11:05:11;2.58;;;1.95;;
48185;SDS011;33978;47.432;18.916;2022-07-29T11:10:47;2.00;;;1.60;;
48185;SDS011;33978;47.432;18.916;2022-07-29T11:16:13;3.42;;;2.00;;
48185;SDS011;33978;47.432;18.916;2022-07-29T11:21:40;1.87;;;1.70;;
48185;SDS011;33978;47.432;18.916;2022-07-29T11:24:30;2.37;;;1.90;;
48185;SDS011;33978;47.432;18.916;2022-07-29T11:27:11;2.50;;;1.83;;
48185;SDS011;33978;47.432;18.916;2022-07-29T11:30:00;3.97;;;1.87;;
48185;SDS011;33978;47.432;18.916;2022-07-29T11:32:41;2.58;;;1.80;;
48185;SDS011;33978;47.432;18.916;2022-07-29T11:35:15;2.67;;;1.90;;
48185;SDS011;33978;47.432;18.916;2022-07-29T11:49:11;2.65;;;1.85;;
48185;SDS011;33978;47.432;18.916;2022-07-29T11:51:41;2.45;;;1.90;;
48185;SDS011;33978;47.432;18.916;2022-07-29T11:54:14;2.80;;;2.03;;
48185;SDS011;33978;47.432;18.916;2022-07-29T11:56:53;2.28;;;1.80;;
48185;SDS011;33978;47.432;18.916;2022-07-29T11:59:21;2.20;;;1.90;;
48185;SDS011;33978;47.432;18.916;2022-07-29T12:01:59;2.87;;;2.15;;
48185;SDS011;33978;47.432;18.916;2022-07-29T12:04:51;2.60;;;2.05;;
48185;SDS011;33978;47.432;18.916;2022-07-29T12:07:30;2.53;;;1.98;;
48185;SDS011;33978;47.432;18.916;2022-07-29T12:10:02;2.50;;;1.92;;
48185;SDS011;33978;47.432;18.916;2022-07-29T12:12:32;2.28;;;1.95;;
48185;SDS011;33978;47.432;18.916;2022-07-29T12:15:14;2.40;;;1.77;;
48185;SDS011;33978;47.432;18.916;2022-07-29T12:17:47;2.42;;;1.60;;
48185;SDS011;33978;47.432;18.916;2022-07-29T12:20:28;2.33;;;1.80;;
48185;SDS011;33978;47.432;18.916;2022-07-29T12:22:56;4.65;;;1.70;;
48185;SDS011;33978;47.432;18.916;2022-07-29T12:25:24;2.65;;;1.85;;
48185;SDS011;33978;47.432;18.916;2022-07-29T12:28:00;2.90;;;1.75;;
48185;SDS011;33978;47.432;18.916;2022-07-29T12:33:24;2.25;;;1.87;;
48185;SDS011;33978;47.432;18.916;2022-07-29T12:35:59;3.12;;;1.75;;
48185;SDS011;33978;47.432;18.916;2022-07-29T12:38:43;2.25;;;1.70;;
48185;SDS011;33978;47.432;18.916;2022-07-29T12:41:11;2.50;;;1.70;;
48185;SDS011;33978;47.432;18.916;2022-07-29T12:43:51;2.95;;;1.77;;
48185;SDS011;33978;47.432;18.916;2022-07-29T12:46:20;3.20;;;1.80;;
48185;SDS011;33978;47.432;18.916;2022-07-29T12:48:50;2.60;;;1.98;;
48185;SDS011;33978;47.432;18.916;2022-07-29T12:51:32;2.30;;;1.73;;
48185;SDS011;33978;47.432;18.916;2022-07-29T12:54:09;2.12;;;1.90;;
48185;SDS011;33978;47.432;18.916;2022-07-29T12:56:39;1.87;;;1.67;;
48185;SDS011;33978;47.432;18.916;2022-07-29T12:59:13;2.40;;;1.67;;
48185;SDS011;33978;47.432;18.916;2022-07-29T13:01:46;2.33;;;1.73;;
48185;SDS011;33978;47.432;18.916;2022-07-29T13:04:30;1.90;;;1.55;;
48185;SDS011;33978;47.432;18.916;2022-07-29T13:06:59;2.05;;;1.83;;
48185;SDS011;33978;47.432;18.916;2022-07-29T13:09:38;2.28;;;1.80;;
48185;SDS011;33978;47.432;18.916;2022-07-29T13:12:12;3.42;;;1.83;;
48185;SDS011;33978;47.432;18.916;2022-07-29T13:14:41;2.20;;;1.85;;
48185;SDS011;33978;47.432;18.916;2022-07-29T13:17:11;1.87;;;1.48;;
48185;SDS011;33978;47.432;18.916;2022-07-29T13:19:43;2.15;;;1.60;;
48185;SDS011;33978;47.432;18.916;2022-07-29T13:22:13;2.28;;;1.60;;
48185;SDS011;33978;47.432;18.916;2022-07-29T13:24:45;2.05;;;1.40;;
48185;SDS011;33978;47.432;18.916;2022-07-29T13:27:20;1.83;;;1.58;;
48185;SDS011;33978;47.432;18.916;2022-07-29T13:29:49;2.35;;;1.60;;
48185;SDS011;33978;47.432;18.916;2022-07-29T13:32:20;2.47;;;1.70;;
48185;SDS011;33978;47.432;18.916;2022-07-29T13:34:55;3.28;;;1.77;;
48185;SDS011;33978;47.432;18.916;2022-07-29T13:37:23;2.37;;;1.90;;
48185;SDS011;33978;47.432;18.916;2022-07-29T13:39:51;2.35;;;1.70;;
48185;SDS011;33978;47.432;18.916;2022-07-29T13:42:19;2.85;;;1.90;;
48185;SDS011;33978;47.432;18.916;2022-07-29T13:44:47;3.08;;;1.80;;
48185;SDS011;33978;47.432;18.916;2022-07-29T13:47:21;2.85;;;2.00;;
48185;SDS011;33978;47.432;18.916;2022-07-29T13:49:59;3.85;;;1.65;;
48185;SDS011;33978;47.432;18.916;2022-07-29T13:52:28;2.35;;;1.80;;
48185;SDS011;33978;47.432;18.916;2022-07-29T13:54:55;2.33;;;1.70;;
48185;SDS011;33978;47.432;18.916;2022-07-29T13:57:23;2.97;;;1.45;;
48185;SDS011;33978;47.432;18.916;2022-07-29T13:59:52;3.17;;;1.90;;
48185;SDS011;33978;47.432;18.916;2022-07-29T14:02:20;2.75;;;1.42;;
48185;SDS011;33978;47.432;18.916;2022-07-29T14:04:52;2.62;;;1.58;;
48185;SDS011;33978;47.432;18.916;2022-07-29T14:07:21;2.62;;;1.77;;
48185;SDS011;33978;47.432;18.916;2022-07-29T14:09:48;4.25;;;1.80;;
48185;SDS011;33978;47.432;18.916;2022-07-29T14:12:17;3.70;;;1.58;;
48185;SDS011;33978;47.432;18.916;2022-07-29T14:14:44;1.60;;;1.20;;
48185;SDS011;33978;47.432;18.916;2022-07-29T14:17:13;2.15;;;1.52;;
48185;SDS011;33978;47.432;18.916;2022-07-29T14:19:42;1.87;;;1.60;;
48185;SDS011;33978;47.432;18.916;2022-07-29T14:22:09;2.53;;;1.70;;
48185;SDS011;33978;47.432;18.916;2022-07-29T14:24:37;1.50;;;1.37;;
48185;SDS011;33978;47.432;18.916;2022-07-29T14:27:05;2.92;;;1.90;;
48185;SDS011;33978;47.432;18.916;2022-07-29T14:29:33;2.58;;;1.73;;
48185;SDS011;33978;47.432;18.916;2022-07-29T14:32:05;2.30;;;1.70;;
48185;SDS011;33978;47.432;18.916;2022-07-29T14:34:34;2.62;;;1.90;;
48185;SDS011;33978;47.432;18.916;2022-07-29T14:37:02;2.15;;;1.80;;
48185;SDS011;33978;47.432;18.916;2022-07-29T14:39:32;3.00;;;1.87;;
48185;SDS011;33978;47.432;18.916;2022-07-29T14:42:05;2.62;;;2.10;;
48185;SDS011;33978;47.432;18.916;2022-07-29T14:44:33;1.65;;;1.50;;
48185;SDS011;33978;47.432;18.916;2022-07-29T14:47:00;2.25;;;1.67;;
48185;SDS011;33978;47.432;18.916;2022-07-29T14:49:34;2.53;;;1.87;;
48185;SDS011;33978;47.432;18.916;2022-07-29T14:52:02;1.95;;;1.52;;
48185;SDS011;33978;47.432;18.916;2022-07-29T14:54:30;2.58;;;2.10;;
48185;SDS011;33978;47.432;18.916;2022-07-29T14:56:57;4.10;;;2.95;;
48185;SDS011;33978;47.432;18.916;2022-07-29T14:59:25;2.45;;;1.90;;
48185;SDS011;33978;47.432;18.916;2022-07-29T15:01:53;3.25;;;1.90;;
48185;SDS011;33978;47.432;18.916;2022-07-29T15:04:22;2.50;;;1.92;;
48185;SDS011;33978;47.432;18.916;2022-07-29T15:06:50;5.20;;;1.67;;
48185;SDS011;33978;47.432;18.916;2022-07-29T15:09:17;2.37;;;1.80;;
48185;SDS011;33978;47.432;18.916;2022-07-29T15:11:45;2.60;;;1.70;;
48185;SDS011;33978;47.432;18.916;2022-07-29T15:14:12;1.87;;;1.55;;
48185;SDS011;33978;47.432;18.916;2022-07-29T15:16:40;2.10;;;1.60;;
48185;SDS011;33978;47.432;18.916;2022-07-29T15:19:14;2.47;;;1.67;;
48185;SDS011;33978;47.432;18.916;2022-07-29T15:21:41;1.90;;;1.42;;
48185;SDS011;33978;47.432;18.916;2022-07-29T15:26:44;2.50;;;1.85;;
48185;SDS011;33978;47.432;18.916;2022-07-29T15:29:11;2.40;;;1.75;;
48185;SDS011;33978;47.432;18.916;2022-07-29T15:31:39;2.30;;;1.73;;
48185;SDS011;33978;47.432;18.916;2022-07-29T15:34:07;3.45;;;1.98;;
48185;SDS011;33978;47.432;18.916;2022-07-29T15:36:34;1.95;;;1.60;;
48185;SDS011;33978;47.432;18.916;2022-07-29T15:39:19;3.33;;;2.30;;
48185;SDS011;33978;47.432;18.916;2022-07-29T15:41:47;3.70;;;1.70;;
48185;SDS011;33978;47.432;18.916;2022-07-29T15:44:14;2.40;;;1.90;;
48185;SDS011;33978;47.432;18.916;2022-07-29T15:46:42;2.95;;;1.80;;
48185;SDS011;33978;47.432;18.916;2022-07-29T15:49:32;1.98;;;1.67;;
48185;SDS011;33978;47.432;18.916;2022-07-29T15:52:16;3.17;;;1.92;;
48185;SDS011;33978;47.432;18.916;2022-07-29T15:54:55;2.97;;;2.10;;
48185;SDS011;33978;47.432;18.916;2022-07-29T15:57:24;1.80;;;1.60;;
48185;SDS011;33978;47.432;18.916;2022-07-29T15:59:51;2.20;;;1.77;;
48185;SDS011;33978;47.432;18.916;2022-07-29T16:02:19;3.22;;;1.92;;
48185;SDS011;33978;47.432;18.916;2022-07-29T16:04:47;2.28;;;1.75;;